• Join FlightAware (Why Join?)
  • Login
  • US Flag 
03:37PM EDT


 

Airport Tracker/Info


-or-


 

Live Flight TrackerFlight Track Log ✈ EGF4247 ✈ 11-Jun-2013 ✈ KBUF - KORD

Flight Track Log - Related Links

Times and Time Zones

All times are in EDT time to prevent confusion due to time zone crossing. See the EGF4247 flight status page for this flight to view local times or setup timezone preferences in your user account.

Time Position Orientation Groundspeed Altitude Reporting Facility
EDT Latitude Longitude Course Direction KTS MPH feet Rate Location/Type
03:57PM 42.9333 -78.7500 270° West 164 189 1,300  Level Buffalo TRACON
03:57PM 42.9000 -78.7667 200° South 171 197 2,400 2,220 Climbing Buffalo TRACON
03:58PM 42.9000 -78.8333 270° West 204 235 5,100 2,160 Climbing Buffalo TRACON
03:59PM 42.9500 -79.0562 270° West  Level FlightAware Approximate
03:59PM 42.9167 -78.9167 285° West 211 243 7,000  Level Buffalo TRACON
04:00PM 42.9586 -79.1696 277° West  Level FlightAware Approximate
04:00PM 42.9167 -79.0000 270° West 260 299 9,000  Level Buffalo TRACON
04:01PM 42.9667 -79.2830 270° West  Level FlightAware Approximate
04:01PM 42.9333 -79.1000 283° West 260 299 11,100  Level Buffalo TRACON
04:02PM 42.9667 -79.3971 270° West  Level FlightAware Approximate
04:02PM 42.9333 -79.2167 270° West 292 336 12,400  Level Buffalo TRACON
04:03PM 42.9500 -79.3167 283° West 308 354 14,100 1,800 Climbing Buffalo TRACON
04:04PM 42.9500 -79.4333 270° West 305 351 16,100 1,620 Climbing Buffalo TRACON
04:05PM 42.9500 -79.5500 270° West 301 346 17,400 1,620 Climbing Buffalo TRACON
04:06PM 42.9667 -79.6667 281° West 306 352 19,400 2,040 Climbing Buffalo TRACON
04:07PM 42.9667 -79.7833 270° West 292 336 21,500 1,560 Climbing Buffalo TRACON
04:08PM 42.9833 -79.8833 283° West 292 336 22,600 1,440 Climbing Buffalo TRACON
04:09PM 42.9833 -80.0000 270° West 305 351 24,400 1,680 Climbing Buffalo TRACON
04:10PM 42.9833 -80.1000 270° West 282 325 26,000 1,740 Climbing Buffalo TRACON
04:11PM 43.0167 -80.1833 299° West 270 311 28,000 1,800 Climbing Toronto Center
04:12PM 43.0333 -80.3000 281° West 260 299 29,800 1,380 Climbing Toronto Center
04:13PM 43.0500 -80.3833 285° West 260 299 30,800 960 Climbing Toronto Center
04:14PM 43.0667 -80.4833 283° West 270 311 31,800 600 Climbing Toronto Center
04:15PM 43.0667 -80.5833 270° West 300 345 32,000 60 Climbing Toronto Center
04:16PM 43.0667 -80.7333 270° West 340 391 32,000  Level Toronto Center
04:17PM 43.0500 -80.8500 259° West 340 391 32,000  Level Toronto Center
04:18PM 43.0500 -80.9833 270° West 340 391 32,000  Level Toronto Center
04:19PM 43.0500 -81.1167 270° West 350 403 32,000  Level Toronto Center
04:20PM 43.0333 -81.2500 260° West 350 403 32,000  Level Toronto Center
04:21PM 43.0333 -81.3833 270° West 350 403 32,000  Level Toronto Center
04:22PM 43.0333 -81.5333 270° West 350 403 32,000  Level Toronto Center
04:23PM 43.0333 -81.6667 270° West 350 403 32,000  Level Toronto Center
04:24PM 43.0333 -81.8000 270° West 350 403 32,000  Level Toronto Center
04:25PM 43.0167 -81.9333 260° West 350 403 32,000  Level Toronto Center
04:26PM 43.0167 -82.0500 270° West 350 403 32,000  Level Toronto Center
04:27PM 43.0167 -82.2167 270° West 350 403 32,000  Level Toronto Center
04:28PM 43.0167 -82.3167 270° West 360 414 32,000  Level Toronto Center
04:29PM 43.0167 -82.4833 270° West 360 414 32,000  Level Toronto Center
04:30PM 43.0167 -82.6000 270° West 360 414 32,000  Level Toronto Center
04:31PM 43.0119 -82.6956 266° West 367 422 32,000  Level Cleveland Center
04:32PM 43.0053 -82.8289 266° West 367 422 32,000  Level Cleveland Center
04:33PM 43.0006 -82.9622 267° West 367 422 32,000  Level Cleveland Center
04:34PM 42.9933 -83.0953 266° West 367 422 32,000  Level Cleveland Center
04:35PM 42.9883 -83.2314 267° West 367 422 32,000  Level Cleveland Center
04:36PM 42.9831 -83.3703 267° West 367 422 32,000  Level Cleveland Center
04:37PM 42.9775 -83.5061 267° West 367 422 32,000  Level Cleveland Center
04:38PM 42.9719 -83.6450 267° West 367 422 32,000  Level Cleveland Center
04:39PM 42.9639 -83.7808 265° West 367 422 32,000  Level Cleveland Center
04:40PM 42.9497 -83.9219 262° West 367 422 32,000  Level Cleveland Center
04:41PM 42.9350 -84.0600 262° West 367 422 32,000  Level Cleveland Center
04:42PM 42.9203 -84.2011 262° West 367 422 32,000  Level Cleveland Center
04:43PM 42.9106 -84.3167 263° West 376 433 32,000  Level Chicago Center
04:44PM 42.8964 -84.4578 262° West 377 434 32,000  Level Chicago Center
04:45PM 42.8792 -84.6286 262° West 379 436 32,000  Level Chicago Center
04:46PM 42.8656 -84.7728 263° West 382 440 32,000  Level Chicago Center
04:47PM 42.8497 -84.9161 261° West 384 442 32,000  Level Chicago Center
04:48PM 42.8342 -85.0581 262° West 380 437 32,000 -60 Level Chicago Center
04:49PM 42.8192 -85.1981 262° West 376 433 31,900 -900 Descending Chicago Center
04:50PM 42.8039 -85.3378 262° West 373 429 30,200 -2,040 Descending Chicago Center
04:51PM 42.7839 -85.5108 261° West 381 438 27,800 -2,160 Descending Chicago Center
04:52PM 42.7581 -85.6561 256° West 390 449 25,800 -1,980 Descending Chicago Center
04:53PM 42.7297 -85.8069 256° West 403 464 23,800 -2,040 Descending Chicago Center
04:54PM 42.7039 -85.9561 257° West 403 464 21,700 -1,620 Descending Chicago Center
04:55PM 42.6769 -86.0992 256° West 395 455 20,500 -840 Descending Chicago Center
04:56PM 42.6533 -86.2322 256° West 369 425 20,000 -840 Descending Chicago Center
04:58PM 42.6289 -86.3592 255° West 350 403 18,800 -2,040 Descending Chicago Center
04:59PM 42.6008 -86.5094 256° West 343 395 15,800 -2,280 Descending Chicago Center
05:00PM 42.5775 -86.6308 255° West 335 386 14,100 -1,320 Descending Chicago Center
05:01PM 42.5528 -86.7592 255° West 347 399 13,100 -1,020 Descending Chicago Center
05:02PM 42.5189 -86.8839 250° West 356 410 12,100 -1,020 Descending Chicago Center
05:03PM 42.4847 -87.0056 249° West 350 403 11,100 -1,080 Descending Chicago Center
05:04PM 42.4550 -87.1094 249° West 295 339 9,900 -1,200 Descending Chicago Center
05:05PM 42.4017 -87.2006 232° Southwest 290 334 8,700 -1,080 Descending Chicago Center
05:06PM 42.3225 -87.2242 192° South 295 339 7,700 -1,020 Descending Chicago Center
05:07PM 42.2439 -87.2481 193° South 286 329 6,700 -1,020 Descending Chicago Center
05:08PM 42.1700 -87.2708 193° South 276 318 5,700 -840 Descending Chicago Center
05:09PM 42.1081 -87.3231 212° Southwest 263 303 5,000 -540 Descending Chicago Center
05:10PM 42.0514 -87.3739 214° Southwest 252 290 4,700 -540 Descending Chicago Center
05:11PM 41.9847 -87.4397 216° Southwest 250 288 4,000 -360 Descending Chicago Center
05:12PM 41.9381 -87.4950 221° Southwest 237 273 4,000  Level Chicago Center
05:13PM 41.9108 -87.5639 242° Southwest 218 251 4,000  Level Chicago Center
05:14PM 41.9119 -87.6369 271° West 206 237 4,000  Level Chicago Center